sensor_id;sensor_type;location;lat;lon;timestamp;P1;durP1;ratioP1;P2;durP2;ratioP2
11691;SDS011;33659;42.672;23.354;2022-10-03T00:00:17;15.02;;;2.00;;
11691;SDS011;33659;42.672;23.354;2022-10-03T00:02:49;1.80;;;1.70;;
11691;SDS011;33659;42.672;23.354;2022-10-03T00:05:40;2.25;;;1.40;;
11691;SDS011;33659;42.672;23.354;2022-10-03T00:08:18;2.58;;;1.88;;
11691;SDS011;33659;42.672;23.354;2022-10-03T00:10:59;1.90;;;1.58;;
11691;SDS011;33659;42.672;23.354;2022-10-03T00:13:32;2.55;;;2.05;;
11691;SDS011;33659;42.672;23.354;2022-10-03T00:16:09;2.28;;;1.48;;
11691;SDS011;33659;42.672;23.354;2022-10-03T00:18:46;1.50;;;1.40;;
11691;SDS011;33659;42.672;23.354;2022-10-03T00:21:32;3.88;;;1.38;;
11691;SDS011;33659;42.672;23.354;2022-10-03T00:24:09;1.52;;;1.40;;
11691;SDS011;33659;42.672;23.354;2022-10-03T00:26:48;1.25;;;1.15;;
11691;SDS011;33659;42.672;23.354;2022-10-03T00:29:27;3.47;;;1.42;;
11691;SDS011;33659;42.672;23.354;2022-10-03T00:32:06;1.23;;;1.13;;
11691;SDS011;33659;42.672;23.354;2022-10-03T00:34:52;1.65;;;1.35;;
11691;SDS011;33659;42.672;23.354;2022-10-03T00:37:29;1.52;;;1.42;;
11691;SDS011;33659;42.672;23.354;2022-10-03T00:40:05;1.00;;;1.00;;
11691;SDS011;33659;42.672;23.354;2022-10-03T00:43:13;2.20;;;1.13;;
11691;SDS011;33659;42.672;23.354;2022-10-03T00:52:40;1.92;;;1.40;;
11691;SDS011;33659;42.672;23.354;2022-10-03T00:55:26;1.63;;;1.52;;
11691;SDS011;33659;42.672;23.354;2022-10-03T00:58:08;2.55;;;1.33;;
11691;SDS011;33659;42.672;23.354;2022-10-03T01:00:48;1.58;;;1.45;;
11691;SDS011;33659;42.672;23.354;2022-10-03T01:03:25;1.73;;;1.63;;
11691;SDS011;33659;42.672;23.354;2022-10-03T01:06:01;1.42;;;1.33;;
11691;SDS011;33659;42.672;23.354;2022-10-03T01:08:51;2.97;;;1.50;;
11691;SDS011;33659;42.672;23.354;2022-10-03T01:11:35;5.15;;;1.65;;
11691;SDS011;33659;42.672;23.354;2022-10-03T01:14:16;2.35;;;1.50;;
11691;SDS011;33659;42.672;23.354;2022-10-03T01:16:57;4.97;;;1.55;;
11691;SDS011;33659;42.672;23.354;2022-10-03T01:19:44;3.00;;;1.67;;
11691;SDS011;33659;42.672;23.354;2022-10-03T01:22:29;2.80;;;1.70;;
11691;SDS011;33659;42.672;23.354;2022-10-03T01:25:17;1.83;;;1.50;;
11691;SDS011;33659;42.672;23.354;2022-10-03T01:27:46;3.67;;;1.60;;
11691;SDS011;33659;42.672;23.354;2022-10-03T01:30:41;1.83;;;1.70;;
11691;SDS011;33659;42.672;23.354;2022-10-03T01:33:15;6.32;;;1.92;;
11691;SDS011;33659;42.672;23.354;2022-10-03T01:35:50;2.35;;;1.73;;
11691;SDS011;33659;42.672;23.354;2022-10-03T01:38:24;2.08;;;1.77;;
11691;SDS011;33659;42.672;23.354;2022-10-03T01:40:56;1.52;;;1.42;;
11691;SDS011;33659;42.672;23.354;2022-10-03T01:43:31;2.72;;;1.80;;
11691;SDS011;33659;42.672;23.354;2022-10-03T01:46:09;2.95;;;1.50;;
11691;SDS011;33659;42.672;23.354;2022-10-03T01:48:43;2.25;;;1.85;;
11691;SDS011;33659;42.672;23.354;2022-10-03T01:51:19;3.05;;;1.80;;
11691;SDS011;33659;42.672;23.354;2022-10-03T01:53:57;3.33;;;1.48;;
11691;SDS011;33659;42.672;23.354;2022-10-03T01:56:34;1.77;;;1.58;;
11691;SDS011;33659;42.672;23.354;2022-10-03T01:59:06;2.50;;;1.88;;
11691;SDS011;33659;42.672;23.354;2022-10-03T02:01:42;1.45;;;1.35;;
11691;SDS011;33659;42.672;23.354;2022-10-03T02:04:17;2.78;;;1.52;;
11691;SDS011;33659;42.672;23.354;2022-10-03T02:06:56;2.03;;;1.58;;
11691;SDS011;33659;42.672;23.354;2022-10-03T02:09:33;1.90;;;1.70;;
11691;SDS011;33659;42.672;23.354;2022-10-03T02:12:24;2.47;;;1.60;;
11691;SDS011;33659;42.672;23.354;2022-10-03T02:14:56;1.83;;;1.67;;
11691;SDS011;33659;42.672;23.354;2022-10-03T02:17:29;3.22;;;1.67;;
11691;SDS011;33659;42.672;23.354;2022-10-03T02:20:12;2.90;;;1.70;;
11691;SDS011;33659;42.672;23.354;2022-10-03T02:22:58;3.80;;;1.60;;
11691;SDS011;33659;42.672;23.354;2022-10-03T02:25:28;2.10;;;1.90;;
11691;SDS011;33659;42.672;23.354;2022-10-03T02:28:22;3.60;;;2.05;;
11691;SDS011;33659;42.672;23.354;2022-10-03T02:34:21;2.47;;;1.55;;
11691;SDS011;33659;42.672;23.354;2022-10-03T02:40:10;3.00;;;1.50;;
11691;SDS011;33659;42.672;23.354;2022-10-03T02:43:16;1.75;;;1.65;;
11691;SDS011;33659;42.672;23.354;2022-10-03T02:49:32;4.03;;;1.80;;
11691;SDS011;33659;42.672;23.354;2022-10-03T03:07:25;4.57;;;2.80;;
11691;SDS011;33659;42.672;23.354;2022-10-03T03:13:20;4.07;;;2.55;;
11691;SDS011;33659;42.672;23.354;2022-10-03T03:19:23;3.33;;;2.72;;
11691;SDS011;33659;42.672;23.354;2022-10-03T03:22:05;4.85;;;2.60;;
11691;SDS011;33659;42.672;23.354;2022-10-03T03:24:53;6.85;;;2.85;;
11691;SDS011;33659;42.672;23.354;2022-10-03T03:27:31;3.10;;;2.75;;
11691;SDS011;33659;42.672;23.354;2022-10-03T03:30:07;5.90;;;3.25;;
11691;SDS011;33659;42.672;23.354;2022-10-03T03:35:35;3.47;;;3.08;;
11691;SDS011;33659;42.672;23.354;2022-10-03T03:38:21;7.35;;;2.95;;
11691;SDS011;33659;42.672;23.354;2022-10-03T03:41:00;3.95;;;2.92;;
11691;SDS011;33659;42.672;23.354;2022-10-03T03:43:42;7.25;;;2.75;;
11691;SDS011;33659;42.672;23.354;2022-10-03T03:46:19;3.40;;;2.60;;
11691;SDS011;33659;42.672;23.354;2022-10-03T03:48:59;6.43;;;3.00;;
11691;SDS011;33659;42.672;23.354;2022-10-03T03:51:41;6.47;;;3.22;;
11691;SDS011;33659;42.672;23.354;2022-10-03T03:57:16;3.75;;;2.63;;
11691;SDS011;33659;42.672;23.354;2022-10-03T03:59:58;5.05;;;3.05;;
11691;SDS011;33659;42.672;23.354;2022-10-03T04:02:36;3.97;;;2.63;;
11691;SDS011;33659;42.672;23.354;2022-10-03T04:05:18;4.20;;;2.90;;
11691;SDS011;33659;42.672;23.354;2022-10-03T04:07:59;2.60;;;2.40;;
11691;SDS011;33659;42.672;23.354;2022-10-03T04:10:45;2.78;;;1.95;;
11691;SDS011;33659;42.672;23.354;2022-10-03T04:13:28;3.60;;;2.60;;
11691;SDS011;33659;42.672;23.354;2022-10-03T04:16:06;4.82;;;3.47;;
11691;SDS011;33659;42.672;23.354;2022-10-03T04:19:03;6.53;;;2.50;;
11691;SDS011;33659;42.672;23.354;2022-10-03T04:21:41;4.80;;;2.67;;
11691;SDS011;33659;42.672;23.354;2022-10-03T04:24:39;3.70;;;3.13;;
11691;SDS011;33659;42.672;23.354;2022-10-03T04:27:30;6.43;;;2.78;;
11691;SDS011;33659;42.672;23.354;2022-10-03T04:30:16;6.53;;;2.75;;
11691;SDS011;33659;42.672;23.354;2022-10-03T04:35:47;4.97;;;2.75;;
11691;SDS011;33659;42.672;23.354;2022-10-03T04:38:38;7.15;;;3.70;;
11691;SDS011;33659;42.672;23.354;2022-10-03T04:41:19;2.97;;;2.75;;
11691;SDS011;33659;42.672;23.354;2022-10-03T04:43:53;3.63;;;3.13;;
11691;SDS011;33659;42.672;23.354;2022-10-03T04:46:31;3.88;;;2.92;;
11691;SDS011;33659;42.672;23.354;2022-10-03T04:49:08;6.13;;;3.33;;
11691;SDS011;33659;42.672;23.354;2022-10-03T04:51:44;5.20;;;3.22;;
11691;SDS011;33659;42.672;23.354;2022-10-03T04:54:21;4.30;;;2.95;;
11691;SDS011;33659;42.672;23.354;2022-10-03T04:56:57;5.97;;;3.22;;
11691;SDS011;33659;42.672;23.354;2022-10-03T04:59:34;7.82;;;3.50;;
11691;SDS011;33659;42.672;23.354;2022-10-03T05:02:17;7.65;;;3.40;;
11691;SDS011;33659;42.672;23.354;2022-10-03T05:04:53;6.72;;;4.15;;
11691;SDS011;33659;42.672;23.354;2022-10-03T05:07:42;7.30;;;4.00;;
11691;SDS011;33659;42.672;23.354;2022-10-03T05:10:19;6.13;;;4.07;;
11691;SDS011;33659;42.672;23.354;2022-10-03T05:12:56;8.55;;;3.80;;
11691;SDS011;33659;42.672;23.354;2022-10-03T05:15:32;3.92;;;3.53;;
11691;SDS011;33659;42.672;23.354;2022-10-03T05:18:09;10.20;;;3.80;;
11691;SDS011;33659;42.672;23.354;2022-10-03T05:20:51;5.88;;;3.90;;
11691;SDS011;33659;42.672;23.354;2022-10-03T05:23:26;6.22;;;3.85;;
11691;SDS011;33659;42.672;23.354;2022-10-03T05:26:06;5.32;;;3.50;;
11691;SDS011;33659;42.672;23.354;2022-10-03T05:28:42;9.18;;;3.92;;
11691;SDS011;33659;42.672;23.354;2022-10-03T05:31:21;5.63;;;3.72;;
11691;SDS011;33659;42.672;23.354;2022-10-03T05:33:58;8.27;;;3.35;;
11691;SDS011;33659;42.672;23.354;2022-10-03T05:36:39;7.65;;;3.55;;
11691;SDS011;33659;42.672;23.354;2022-10-03T05:39:24;8.75;;;3.28;;
11691;SDS011;33659;42.672;23.354;2022-10-03T05:41:54;7.68;;;3.70;;
11691;SDS011;33659;42.672;23.354;2022-10-03T05:44:33;6.33;;;3.87;;
11691;SDS011;33659;42.672;23.354;2022-10-03T05:47:08;6.20;;;3.87;;
11691;SDS011;33659;42.672;23.354;2022-10-03T05:49:57;9.50;;;4.05;;
11691;SDS011;33659;42.672;23.354;2022-10-03T05:52:43;6.50;;;3.88;;
11691;SDS011;33659;42.672;23.354;2022-10-03T05:55:28;5.72;;;3.58;;
11691;SDS011;33659;42.672;23.354;2022-10-03T05:58:19;5.25;;;3.60;;
11691;SDS011;33659;42.672;23.354;2022-10-03T06:04:16;6.13;;;3.50;;
11691;SDS011;33659;42.672;23.354;2022-10-03T06:07:17;3.92;;;3.40;;
11691;SDS011;33659;42.672;23.354;2022-10-03T06:13:04;7.60;;;4.13;;
11691;SDS011;33659;42.672;23.354;2022-10-03T06:15:38;7.60;;;3.60;;
11691;SDS011;33659;42.672;23.354;2022-10-03T06:18:32;9.55;;;3.60;;
11691;SDS011;33659;42.672;23.354;2022-10-03T06:30:38;5.10;;;3.55;;
11691;SDS011;33659;42.672;23.354;2022-10-03T06:33:35;13.93;;;4.28;;
11691;SDS011;33659;42.672;23.354;2022-10-03T06:36:31;6.50;;;3.80;;
11691;SDS011;33659;42.672;23.354;2022-10-03T06:48:48;4.00;;;3.10;;
11691;SDS011;33659;42.672;23.354;2022-10-03T06:51:45;11.25;;;3.95;;
11691;SDS011;33659;42.672;23.354;2022-10-03T06:54:30;5.00;;;3.65;;
11691;SDS011;33659;42.672;23.354;2022-10-03T06:57:23;4.22;;;3.83;;
11691;SDS011;33659;42.672;23.354;2022-10-03T07:00:10;9.18;;;4.20;;
11691;SDS011;33659;42.672;23.354;2022-10-03T07:05:52;8.68;;;5.05;;
11691;SDS011;33659;42.672;23.354;2022-10-03T07:08:40;11.95;;;6.63;;
11691;SDS011;33659;42.672;23.354;2022-10-03T07:14:39;9.13;;;5.82;;
11691;SDS011;33659;42.672;23.354;2022-10-03T07:17:36;7.05;;;4.32;;
11691;SDS011;33659;42.672;23.354;2022-10-03T07:20:25;6.45;;;4.07;;
11691;SDS011;33659;42.672;23.354;2022-10-03T07:23:29;5.22;;;4.32;;
11691;SDS011;33659;42.672;23.354;2022-10-03T07:26:30;6.10;;;3.75;;
11691;SDS011;33659;42.672;23.354;2022-10-03T07:29:19;9.38;;;3.80;;
11691;SDS011;33659;42.672;23.354;2022-10-03T07:32:10;9.45;;;3.88;;
11691;SDS011;33659;42.672;23.354;2022-10-03T07:38:33;7.55;;;4.32;;
11691;SDS011;33659;42.672;23.354;2022-10-03T07:41:34;5.85;;;3.97;;
11691;SDS011;33659;42.672;23.354;2022-10-03T07:44:30;8.05;;;4.20;;
11691;SDS011;33659;42.672;23.354;2022-10-03T07:50:46;6.70;;;3.83;;
11691;SDS011;33659;42.672;23.354;2022-10-03T07:53:47;10.98;;;3.60;;
11691;SDS011;33659;42.672;23.354;2022-10-03T07:56:41;4.82;;;3.70;;
11691;SDS011;33659;42.672;23.354;2022-10-03T07:59:32;5.85;;;3.90;;
11691;SDS011;33659;42.672;23.354;2022-10-03T08:02:34;6.47;;;3.70;;
11691;SDS011;33659;42.672;23.354;2022-10-03T08:05:25;6.68;;;4.03;;
11691;SDS011;33659;42.672;23.354;2022-10-03T08:08:11;6.82;;;4.00;;
11691;SDS011;33659;42.672;23.354;2022-10-03T08:11:04;7.32;;;4.25;;
11691;SDS011;33659;42.672;23.354;2022-10-03T08:16:40;7.22;;;3.88;;
11691;SDS011;33659;42.672;23.354;2022-10-03T08:19:24;6.90;;;3.70;;
11691;SDS011;33659;42.672;23.354;2022-10-03T08:22:08;5.70;;;3.22;;
11691;SDS011;33659;42.672;23.354;2022-10-03T08:31:13;4.75;;;3.58;;
11691;SDS011;33659;42.672;23.354;2022-10-03T08:34:00;4.57;;;3.20;;
11691;SDS011;33659;42.672;23.354;2022-10-03T08:36:53;4.18;;;3.42;;
11691;SDS011;33659;42.672;23.354;2022-10-03T08:40:02;5.07;;;2.40;;
11691;SDS011;33659;42.672;23.354;2022-10-03T08:43:18;4.97;;;2.15;;
11691;SDS011;33659;42.672;23.354;2022-10-03T08:46:16;1.95;;;1.77;;
11691;SDS011;33659;42.672;23.354;2022-10-03T08:49:02;2.00;;;1.90;;
11691;SDS011;33659;42.672;23.354;2022-10-03T08:52:04;2.10;;;1.90;;
11691;SDS011;33659;42.672;23.354;2022-10-03T08:58:04;3.25;;;2.03;;
11691;SDS011;33659;42.672;23.354;2022-10-03T09:00:55;4.63;;;2.33;;
11691;SDS011;33659;42.672;23.354;2022-10-03T09:06:49;2.63;;;1.98;;
11691;SDS011;33659;42.672;23.354;2022-10-03T09:09:36;4.07;;;1.73;;
11691;SDS011;33659;42.672;23.354;2022-10-03T09:12:27;2.38;;;2.00;;
11691;SDS011;33659;42.672;23.354;2022-10-03T09:35:48;11.18;;;3.75;;
11691;SDS011;33659;42.672;23.354;2022-10-03T09:44:36;1.92;;;1.83;;
11691;SDS011;33659;42.672;23.354;2022-10-03T09:50:52;2.63;;;1.67;;
11691;SDS011;33659;42.672;23.354;2022-10-03T09:53:45;2.95;;;2.17;;
11691;SDS011;33659;42.672;23.354;2022-10-03T09:59:28;2.25;;;2.05;;
11691;SDS011;33659;42.672;23.354;2022-10-03T10:02:34;2.53;;;2.20;;
11691;SDS011;33659;42.672;23.354;2022-10-03T10:05:32;2.55;;;2.35;;
11691;SDS011;33659;42.672;23.354;2022-10-03T10:08:32;1.90;;;1.80;;
11691;SDS011;33659;42.672;23.354;2022-10-03T10:11:19;1.65;;;1.55;;
11691;SDS011;33659;42.672;23.354;2022-10-03T10:20:01;2.38;;;1.70;;
11691;SDS011;33659;42.672;23.354;2022-10-03T10:26:11;1.35;;;1.35;;
11691;SDS011;33659;42.672;23.354;2022-10-03T10:32:26;1.85;;;1.75;;
11691;SDS011;33659;42.672;23.354;2022-10-03T10:35:20;1.85;;;1.60;;
11691;SDS011;33659;42.672;23.354;2022-10-03T10:47:46;1.52;;;1.42;;
11691;SDS011;33659;42.672;23.354;2022-10-03T10:57:00;2.22;;;1.40;;
11691;SDS011;33659;42.672;23.354;2022-10-03T10:59:52;1.40;;;1.30;;
11691;SDS011;33659;42.672;23.354;2022-10-03T11:02:43;1.58;;;1.48;;
11691;SDS011;33659;42.672;23.354;2022-10-03T11:05:43;2.10;;;1.33;;
11691;SDS011;33659;42.672;23.354;2022-10-03T11:11:31;1.58;;;1.48;;
11691;SDS011;33659;42.672;23.354;2022-10-03T11:14:42;2.03;;;1.48;;
11691;SDS011;33659;42.672;23.354;2022-10-03T11:17:49;4.10;;;1.58;;
11691;SDS011;33659;42.672;23.354;2022-10-03T11:39:22;4.38;;;2.30;;
11691;SDS011;33659;42.672;23.354;2022-10-03T11:41:59;2.72;;;2.53;;
11691;SDS011;33659;42.672;23.354;2022-10-03T11:44:31;3.20;;;2.88;;
11691;SDS011;33659;42.672;23.354;2022-10-03T11:47:19;4.53;;;2.72;;
11691;SDS011;33659;42.672;23.354;2022-10-03T11:53:09;3.80;;;2.40;;
11691;SDS011;33659;42.672;23.354;2022-10-03T11:55:42;2.53;;;2.30;;
11691;SDS011;33659;42.672;23.354;2022-10-03T11:58:24;2.60;;;2.40;;
11691;SDS011;33659;42.672;23.354;2022-10-03T12:01:03;3.08;;;2.80;;
11691;SDS011;33659;42.672;23.354;2022-10-03T12:03:44;4.68;;;2.80;;
11691;SDS011;33659;42.672;23.354;2022-10-03T12:06:36;2.78;;;2.58;;
11691;SDS011;33659;42.672;23.354;2022-10-03T12:09:36;3.05;;;2.72;;
11691;SDS011;33659;42.672;23.354;2022-10-03T12:12:12;2.80;;;2.55;;
11691;SDS011;33659;42.672;23.354;2022-10-03T12:14:51;3.83;;;2.50;;
11691;SDS011;33659;42.672;23.354;2022-10-03T12:17:24;3.67;;;3.28;;
11691;SDS011;33659;42.672;23.354;2022-10-03T12:19:58;3.60;;;3.22;;
11691;SDS011;33659;42.672;23.354;2022-10-03T12:22:35;3.78;;;2.70;;
11691;SDS011;33659;42.672;23.354;2022-10-03T12:25:15;3.15;;;2.85;;
11691;SDS011;33659;42.672;23.354;2022-10-03T12:27:51;2.65;;;2.45;;
11691;SDS011;33659;42.672;23.354;2022-10-03T12:30:27;2.80;;;2.60;;
11691;SDS011;33659;42.672;23.354;2022-10-03T12:33:09;2.90;;;2.38;;
11691;SDS011;33659;42.672;23.354;2022-10-03T12:35:52;3.10;;;2.80;;
11691;SDS011;33659;42.672;23.354;2022-10-03T12:38:34;3.95;;;3.00;;
11691;SDS011;33659;42.672;23.354;2022-10-03T12:41:15;2.80;;;2.60;;
11691;SDS011;33659;42.672;23.354;2022-10-03T12:43:53;3.67;;;2.70;;
11691;SDS011;33659;42.672;23.354;2022-10-03T12:46:34;4.13;;;3.83;;
11691;SDS011;33659;42.672;23.354;2022-10-03T12:49:08;2.70;;;2.50;;
11691;SDS011;33659;42.672;23.354;2022-10-03T12:51:46;2.72;;;2.53;;
11691;SDS011;33659;42.672;23.354;2022-10-03T12:54:23;3.00;;;2.70;;
11691;SDS011;33659;42.672;23.354;2022-10-03T12:57:06;5.18;;;2.70;;
11691;SDS011;33659;42.672;23.354;2022-10-03T13:00:04;3.10;;;2.83;;
11691;SDS011;33659;42.672;23.354;2022-10-03T13:02:38;2.80;;;2.60;;
11691;SDS011;33659;42.672;23.354;2022-10-03T13:05:30;3.20;;;2.90;;
11691;SDS011;33659;42.672;23.354;2022-10-03T13:08:05;3.30;;;3.00;;
11691;SDS011;33659;42.672;23.354;2022-10-03T13:10:48;3.45;;;2.75;;
11691;SDS011;33659;42.672;23.354;2022-10-03T13:13:22;2.33;;;2.22;;
11691;SDS011;33659;42.672;23.354;2022-10-03T13:15:58;4.20;;;2.70;;
11691;SDS011;33659;42.672;23.354;2022-10-03T13:18:41;3.35;;;3.00;;
11691;SDS011;33659;42.672;23.354;2022-10-03T13:21:14;2.45;;;2.28;;
11691;SDS011;33659;42.672;23.354;2022-10-03T13:23:46;2.75;;;2.55;;
11691;SDS011;33659;42.672;23.354;2022-10-03T13:26:21;3.20;;;2.60;;
11691;SDS011;33659;42.672;23.354;2022-10-03T13:29:05;2.92;;;2.72;;
11691;SDS011;33659;42.672;23.354;2022-10-03T13:34:56;2.38;;;2.20;;
11691;SDS011;33659;42.672;23.354;2022-10-03T13:37:57;2.38;;;2.15;;
11691;SDS011;33659;42.672;23.354;2022-10-03T13:40:50;2.25;;;2.03;;
11691;SDS011;33659;42.672;23.354;2022-10-03T13:43:26;2.10;;;2.00;;
11691;SDS011;33659;42.672;23.354;2022-10-03T13:45:59;2.88;;;1.92;;
11691;SDS011;33659;42.672;23.354;2022-10-03T13:48:32;2.20;;;1.83;;
11691;SDS011;33659;42.672;23.354;2022-10-03T13:51:01;2.20;;;2.03;;
11691;SDS011;33659;42.672;23.354;2022-10-03T13:59:18;2.38;;;2.20;;
11691;SDS011;33659;42.672;23.354;2022-10-03T14:02:11;3.95;;;2.15;;
11691;SDS011;33659;42.672;23.354;2022-10-03T14:04:50;2.83;;;2.40;;
11691;SDS011;33659;42.672;23.354;2022-10-03T14:07:33;2.30;;;2.20;;
11691;SDS011;33659;42.672;23.354;2022-10-03T14:10:08;2.30;;;2.10;;
11691;SDS011;33659;42.672;23.354;2022-10-03T14:12:57;3.67;;;2.22;;
11691;SDS011;33659;42.672;23.354;2022-10-03T14:15:39;4.05;;;2.05;;
11691;SDS011;33659;42.672;23.354;2022-10-03T14:18:17;2.10;;;2.00;;
11691;SDS011;33659;42.672;23.354;2022-10-03T14:23:55;1.95;;;1.80;;
11691;SDS011;33659;42.672;23.354;2022-10-03T14:26:32;1.95;;;1.70;;
11691;SDS011;33659;42.672;23.354;2022-10-03T14:29:04;4.28;;;1.75;;
11691;SDS011;33659;42.672;23.354;2022-10-03T14:31:40;1.48;;;1.38;;
11691;SDS011;33659;42.672;23.354;2022-10-03T14:34:27;1.67;;;1.58;;
11691;SDS011;33659;42.672;23.354;2022-10-03T14:37:07;1.90;;;1.70;;
11691;SDS011;33659;42.672;23.354;2022-10-03T14:39:45;1.85;;;1.75;;
11691;SDS011;33659;42.672;23.354;2022-10-03T14:45:20;1.75;;;1.70;;
11691;SDS011;33659;42.672;23.354;2022-10-03T14:47:52;3.97;;;1.60;;
11691;SDS011;33659;42.672;23.354;2022-10-03T14:50:24;3.10;;;1.83;;
11691;SDS011;33659;42.672;23.354;2022-10-03T14:52:54;2.05;;;1.90;;
11691;SDS011;33659;42.672;23.354;2022-10-03T14:55:27;2.30;;;2.08;;
11691;SDS011;33659;42.672;23.354;2022-10-03T14:57:58;3.70;;;2.00;;
11691;SDS011;33659;42.672;23.354;2022-10-03T15:00:35;4.32;;;2.40;;
11691;SDS011;33659;42.672;23.354;2022-10-03T15:03:26;1.98;;;1.88;;
11691;SDS011;33659;42.672;23.354;2022-10-03T15:05:59;2.13;;;2.03;;
11691;SDS011;33659;42.672;23.354;2022-10-03T15:08:32;3.33;;;2.50;;
11691;SDS011;33659;42.672;23.354;2022-10-03T15:11:03;3.65;;;2.67;;
11691;SDS011;33659;42.672;23.354;2022-10-03T15:13:32;3.75;;;2.35;;
11691;SDS011;33659;42.672;23.354;2022-10-03T15:16:04;2.63;;;2.42;;
11691;SDS011;33659;42.672;23.354;2022-10-03T15:18:34;2.50;;;2.30;;
11691;SDS011;33659;42.672;23.354;2022-10-03T15:21:03;2.20;;;2.10;;
11691;SDS011;33659;42.672;23.354;2022-10-03T15:23:31;2.72;;;2.53;;
11691;SDS011;33659;42.672;23.354;2022-10-03T15:26:06;2.25;;;2.15;;
11691;SDS011;33659;42.672;23.354;2022-10-03T15:28:37;4.00;;;2.30;;
11691;SDS011;33659;42.672;23.354;2022-10-03T15:31:07;2.70;;;2.28;;
11691;SDS011;33659;42.672;23.354;2022-10-03T15:33:39;2.47;;;2.28;;
11691;SDS011;33659;42.672;23.354;2022-10-03T15:36:11;2.20;;;2.10;;
11691;SDS011;33659;42.672;23.354;2022-10-03T15:38:42;2.10;;;2.00;;
11691;SDS011;33659;42.672;23.354;2022-10-03T15:41:15;3.00;;;2.13;;
11691;SDS011;33659;42.672;23.354;2022-10-03T15:43:49;2.72;;;1.83;;
11691;SDS011;33659;42.672;23.354;2022-10-03T15:46:26;4.32;;;3.22;;
11691;SDS011;33659;42.672;23.354;2022-10-03T15:49:00;4.45;;;3.40;;
11691;SDS011;33659;42.672;23.354;2022-10-03T15:51:30;5.05;;;3.35;;
11691;SDS011;33659;42.672;23.354;2022-10-03T15:54:03;4.22;;;3.15;;
11691;SDS011;33659;42.672;23.354;2022-10-03T15:56:34;3.88;;;2.75;;
11691;SDS011;33659;42.672;23.354;2022-10-03T15:59:06;2.20;;;2.10;;
11691;SDS011;33659;42.672;23.354;2022-10-03T16:01:36;3.78;;;2.60;;
11691;SDS011;33659;42.672;23.354;2022-10-03T16:04:11;3.97;;;2.10;;
11691;SDS011;33659;42.672;23.354;2022-10-03T16:06:44;2.35;;;2.13;;
11691;SDS011;33659;42.672;23.354;2022-10-03T16:09:16;4.85;;;2.33;;
11691;SDS011;33659;42.672;23.354;2022-10-03T16:11:53;3.70;;;2.90;;
11691;SDS011;33659;42.672;23.354;2022-10-03T16:14:30;4.88;;;2.30;;
11691;SDS011;33659;42.672;23.354;2022-10-03T16:17:06;4.65;;;2.25;;
11691;SDS011;33659;42.672;23.354;2022-10-03T16:19:43;2.90;;;2.10;;
11691;SDS011;33659;42.672;23.354;2022-10-03T16:22:20;3.83;;;2.40;;
11691;SDS011;33659;42.672;23.354;2022-10-03T16:24:57;1.85;;;1.75;;
11691;SDS011;33659;42.672;23.354;2022-10-03T16:27:30;3.30;;;2.05;;
11691;SDS011;33659;42.672;23.354;2022-10-03T16:30:10;4.15;;;2.20;;
11691;SDS011;33659;42.672;23.354;2022-10-03T16:32:43;3.50;;;2.33;;
11691;SDS011;33659;42.672;23.354;2022-10-03T16:35:25;2.58;;;2.20;;
11691;SDS011;33659;42.672;23.354;2022-10-03T16:37:57;2.17;;;2.00;;
11691;SDS011;33659;42.672;23.354;2022-10-03T16:40:26;5.68;;;2.45;;
11691;SDS011;33659;42.672;23.354;2022-10-03T16:42:54;2.85;;;2.22;;
11691;SDS011;33659;42.672;23.354;2022-10-03T16:45:25;3.75;;;1.90;;
11691;SDS011;33659;42.672;23.354;2022-10-03T16:47:55;1.60;;;1.50;;
11691;SDS011;33659;42.672;23.354;2022-10-03T16:50:45;3.15;;;2.30;;
11691;SDS011;33659;42.672;23.354;2022-10-03T16:53:15;2.33;;;2.13;;
11691;SDS011;33659;42.672;23.354;2022-10-03T16:55:44;4.22;;;2.72;;
11691;SDS011;33659;42.672;23.354;2022-10-03T16:58:16;2.72;;;2.53;;
11691;SDS011;33659;42.672;23.354;2022-10-03T17:00:49;2.10;;;2.00;;
11691;SDS011;33659;42.672;23.354;2022-10-03T17:03:21;2.33;;;1.70;;
11691;SDS011;33659;42.672;23.354;2022-10-03T17:05:52;4.90;;;2.03;;
11691;SDS011;33659;42.672;23.354;2022-10-03T17:08:24;2.03;;;1.90;;
11691;SDS011;33659;42.672;23.354;2022-10-03T17:10:56;5.53;;;2.63;;
11691;SDS011;33659;42.672;23.354;2022-10-03T17:13:26;6.60;;;4.28;;
11691;SDS011;33659;42.672;23.354;2022-10-03T17:16:06;2.17;;;1.92;;
11691;SDS011;33659;42.672;23.354;2022-10-03T17:18:39;2.58;;;2.03;;
11691;SDS011;33659;42.672;23.354;2022-10-03T17:21:14;3.40;;;2.92;;
11691;SDS011;33659;42.672;23.354;2022-10-03T17:23:48;3.22;;;2.75;;
11691;SDS011;33659;42.672;23.354;2022-10-03T17:26:22;2.53;;;2.25;;
11691;SDS011;33659;42.672;23.354;2022-10-03T17:28:55;2.25;;;2.10;;
11691;SDS011;33659;42.672;23.354;2022-10-03T17:31:28;2.95;;;2.60;;
11691;SDS011;33659;42.672;23.354;2022-10-03T17:34:02;5.40;;;2.15;;
11691;SDS011;33659;42.672;23.354;2022-10-03T17:36:54;2.80;;;2.10;;
11691;SDS011;33659;42.672;23.354;2022-10-03T17:39:52;2.40;;;1.90;;
11691;SDS011;33659;42.672;23.354;2022-10-03T17:42:25;3.00;;;2.30;;
11691;SDS011;33659;42.672;23.354;2022-10-03T17:45:09;2.20;;;2.00;;
11691;SDS011;33659;42.672;23.354;2022-10-03T17:47:49;1.70;;;1.60;;
11691;SDS011;33659;42.672;23.354;2022-10-03T17:50:22;1.85;;;1.75;;
11691;SDS011;33659;42.672;23.354;2022-10-03T17:52:55;2.25;;;2.05;;
11691;SDS011;33659;42.672;23.354;2022-10-03T17:55:25;2.80;;;2.00;;
11691;SDS011;33659;42.672;23.354;2022-10-03T17:57:55;2.30;;;2.10;;
11691;SDS011;33659;42.672;23.354;2022-10-03T18:00:26;3.35;;;2.00;;
11691;SDS011;33659;42.672;23.354;2022-10-03T18:02:58;3.15;;;2.17;;
11691;SDS011;33659;42.672;23.354;2022-10-03T18:05:32;2.17;;;2.08;;
11691;SDS011;33659;42.672;23.354;2022-10-03T18:08:04;2.40;;;2.20;;
11691;SDS011;33659;42.672;23.354;2022-10-03T18:10:35;3.45;;;2.28;;
11691;SDS011;33659;42.672;23.354;2022-10-03T18:13:06;4.45;;;2.20;;
11691;SDS011;33659;42.672;23.354;2022-10-03T18:21:54;3.33;;;2.38;;
11691;SDS011;33659;42.672;23.354;2022-10-03T18:24:39;2.97;;;1.77;;
11691;SDS011;33659;42.672;23.354;2022-10-03T18:30:20;2.63;;;2.00;;
11691;SDS011;33659;42.672;23.354;2022-10-03T18:32:52;2.33;;;2.13;;
11691;SDS011;33659;42.672;23.354;2022-10-03T18:35:23;4.05;;;2.10;;
11691;SDS011;33659;42.672;23.354;2022-10-03T18:37:54;3.42;;;1.85;;
11691;SDS011;33659;42.672;23.354;2022-10-03T18:40:29;2.20;;;1.75;;
11691;SDS011;33659;42.672;23.354;2022-10-03T18:42:59;2.90;;;1.85;;
11691;SDS011;33659;42.672;23.354;2022-10-03T18:45:29;1.73;;;1.63;;
11691;SDS011;33659;42.672;23.354;2022-10-03T18:48:03;2.93;;;2.10;;
11691;SDS011;33659;42.672;23.354;2022-10-03T18:50:38;3.50;;;1.80;;
11691;SDS011;33659;42.672;23.354;2022-10-03T18:53:18;2.70;;;1.80;;
11691;SDS011;33659;42.672;23.354;2022-10-03T18:55:55;2.93;;;1.77;;
11691;SDS011;33659;42.672;23.354;2022-10-03T18:58:28;1.73;;;1.63;;
11691;SDS011;33659;42.672;23.354;2022-10-03T19:00:58;3.28;;;1.70;;
11691;SDS011;33659;42.672;23.354;2022-10-03T19:03:30;3.63;;;1.93;;
11691;SDS011;33659;42.672;23.354;2022-10-03T19:06:02;3.50;;;1.80;;
11691;SDS011;33659;42.672;23.354;2022-10-03T19:08:33;2.80;;;1.60;;
11691;SDS011;33659;42.672;23.354;2022-10-03T19:11:09;3.70;;;1.87;;
11691;SDS011;33659;42.672;23.354;2022-10-03T19:13:42;2.17;;;1.55;;
11691;SDS011;33659;42.672;23.354;2022-10-03T19:16:17;2.13;;;1.77;;
11691;SDS011;33659;42.672;23.354;2022-10-03T19:18:55;3.23;;;2.00;;
11691;SDS011;33659;42.672;23.354;2022-10-03T19:21:32;2.10;;;1.73;;
11691;SDS011;33659;42.672;23.354;2022-10-03T19:24:01;5.60;;;2.10;;